sensor_id;sensor_type;location;lat;lon;timestamp;temperature;humidity
55436;DHT22;41307;53.142;6.430;2022-08-19T00:00:34;15.20;99.90
55436;DHT22;41307;53.142;6.430;2022-08-19T00:03:00;15.20;99.90
55436;DHT22;41307;53.142;6.430;2022-08-19T00:05:26;15.20;99.90
55436;DHT22;41307;53.142;6.430;2022-08-19T00:07:51;15.20;99.90
55436;DHT22;41307;53.142;6.430;2022-08-19T00:10:18;15.20;99.90
55436;DHT22;41307;53.142;6.430;2022-08-19T00:12:44;15.10;99.90
55436;DHT22;41307;53.142;6.430;2022-08-19T00:15:13;15.10;99.90
55436;DHT22;41307;53.142;6.430;2022-08-19T00:17:40;15.00;99.90
55436;DHT22;41307;53.142;6.430;2022-08-19T00:20:07;15.10;99.90
55436;DHT22;41307;53.142;6.430;2022-08-19T00:22:34;15.00;99.90
55436;DHT22;41307;53.142;6.430;2022-08-19T00:25:00;15.00;99.90
55436;DHT22;41307;53.142;6.430;2022-08-19T00:27:25;15.00;99.90
55436;DHT22;41307;53.142;6.430;2022-08-19T00:29:51;14.90;99.90
55436;DHT22;41307;53.142;6.430;2022-08-19T00:32:17;14.90;99.90
55436;DHT22;41307;53.142;6.430;2022-08-19T00:34:42;14.90;99.90
55436;DHT22;41307;53.142;6.430;2022-08-19T00:37:09;14.90;99.90
55436;DHT22;41307;53.142;6.430;2022-08-19T00:39:35;14.90;99.90
55436;DHT22;41307;53.142;6.430;2022-08-19T00:42:01;15.00;99.90
55436;DHT22;41307;53.142;6.430;2022-08-19T00:44:28;14.90;99.90
55436;DHT22;41307;53.142;6.430;2022-08-19T00:46:57;14.90;99.90
55436;DHT22;41307;53.142;6.430;2022-08-19T00:49:39;14.80;99.90
55436;DHT22;41307;53.142;6.430;2022-08-19T00:52:14;14.80;99.90
55436;DHT22;41307;53.142;6.430;2022-08-19T00:54:41;14.80;99.90
55436;DHT22;41307;53.142;6.430;2022-08-19T00:57:10;14.80;99.90
55436;DHT22;41307;53.142;6.430;2022-08-19T00:59:38;14.70;99.90
55436;DHT22;41307;53.142;6.430;2022-08-19T01:02:05;14.70;99.90
55436;DHT22;41307;53.142;6.430;2022-08-19T01:04:30;14.70;99.90
55436;DHT22;41307;53.142;6.430;2022-08-19T01:06:57;14.70;99.90
55436;DHT22;41307;53.142;6.430;2022-08-19T01:09:23;14.70;99.90
55436;DHT22;41307;53.142;6.430;2022-08-19T01:11:48;14.60;99.90
55436;DHT22;41307;53.142;6.430;2022-08-19T01:14:15;14.70;99.90
55436;DHT22;41307;53.142;6.430;2022-08-19T01:16:43;14.60;99.90
55436;DHT22;41307;53.142;6.430;2022-08-19T01:19:31;14.60;99.90
55436;DHT22;41307;53.142;6.430;2022-08-19T01:22:03;14.60;99.90
55436;DHT22;41307;53.142;6.430;2022-08-19T01:24:31;14.50;99.90
55436;DHT22;41307;53.142;6.430;2022-08-19T01:26:58;14.50;99.90
55436;DHT22;41307;53.142;6.430;2022-08-19T01:29:23;14.60;99.90
55436;DHT22;41307;53.142;6.430;2022-08-19T01:31:49;14.50;99.90
55436;DHT22;41307;53.142;6.430;2022-08-19T01:34:18;14.40;99.90
55436;DHT22;41307;53.142;6.430;2022-08-19T01:36:45;14.40;99.90
55436;DHT22;41307;53.142;6.430;2022-08-19T01:39:21;14.40;99.90
55436;DHT22;41307;53.142;6.430;2022-08-19T01:41:47;14.30;99.90
55436;DHT22;41307;53.142;6.430;2022-08-19T01:44:15;14.40;99.90
55436;DHT22;41307;53.142;6.430;2022-08-19T01:46:42;14.30;99.90
55436;DHT22;41307;53.142;6.430;2022-08-19T01:49:09;14.40;99.90
55436;DHT22;41307;53.142;6.430;2022-08-19T01:51:36;14.30;99.90
55436;DHT22;41307;53.142;6.430;2022-08-19T01:54:03;14.30;99.90
55436;DHT22;41307;53.142;6.430;2022-08-19T01:56:28;14.40;99.90
55436;DHT22;41307;53.142;6.430;2022-08-19T01:59:06;14.40;99.90
55436;DHT22;41307;53.142;6.430;2022-08-19T02:01:33;14.30;99.90
55436;DHT22;41307;53.142;6.430;2022-08-19T02:04:00;14.30;99.90
55436;DHT22;41307;53.142;6.430;2022-08-19T02:06:26;14.30;99.90
55436;DHT22;41307;53.142;6.430;2022-08-19T02:08:52;14.30;99.90
55436;DHT22;41307;53.142;6.430;2022-08-19T02:11:25;14.30;99.90
55436;DHT22;41307;53.142;6.430;2022-08-19T02:13:52;14.30;99.90
55436;DHT22;41307;53.142;6.430;2022-08-19T02:16:19;14.30;99.90
55436;DHT22;41307;53.142;6.430;2022-08-19T02:18:46;14.30;99.90
55436;DHT22;41307;53.142;6.430;2022-08-19T02:21:15;14.30;99.90
55436;DHT22;41307;53.142;6.430;2022-08-19T02:23:42;14.30;99.90
55436;DHT22;41307;53.142;6.430;2022-08-19T02:26:08;14.30;99.90
55436;DHT22;41307;53.142;6.430;2022-08-19T02:28:34;14.30;99.90
55436;DHT22;41307;53.142;6.430;2022-08-19T02:31:00;14.30;99.90
55436;DHT22;41307;53.142;6.430;2022-08-19T02:33:28;14.30;99.90
55436;DHT22;41307;53.142;6.430;2022-08-19T02:35:54;14.30;99.90
55436;DHT22;41307;53.142;6.430;2022-08-19T02:38:19;14.30;99.90
55436;DHT22;41307;53.142;6.430;2022-08-19T02:40:54;14.30;99.90
55436;DHT22;41307;53.142;6.430;2022-08-19T02:43:21;14.30;99.90
55436;DHT22;41307;53.142;6.430;2022-08-19T02:45:47;14.30;99.90
55436;DHT22;41307;53.142;6.430;2022-08-19T02:48:21;14.30;99.90
55436;DHT22;41307;53.142;6.430;2022-08-19T02:50:48;14.30;99.90
55436;DHT22;41307;53.142;6.430;2022-08-19T02:53:23;14.30;99.90
55436;DHT22;41307;53.142;6.430;2022-08-19T02:55:50;14.30;99.90
55436;DHT22;41307;53.142;6.430;2022-08-19T02:58:16;14.30;99.90
55436;DHT22;41307;53.142;6.430;2022-08-19T03:00:44;14.30;99.90
55436;DHT22;41307;53.142;6.430;2022-08-19T03:03:10;14.20;99.90
55436;DHT22;41307;53.142;6.430;2022-08-19T03:05:36;14.30;99.90
55436;DHT22;41307;53.142;6.430;2022-08-19T03:08:02;14.20;99.90
55436;DHT22;41307;53.142;6.430;2022-08-19T03:10:28;14.30;99.90
55436;DHT22;41307;53.142;6.430;2022-08-19T03:12:54;14.30;99.90
55436;DHT22;41307;53.142;6.430;2022-08-19T03:15:20;14.30;99.90
55436;DHT22;41307;53.142;6.430;2022-08-19T03:17:46;14.30;99.90
55436;DHT22;41307;53.142;6.430;2022-08-19T03:20:11;14.30;99.90
55436;DHT22;41307;53.142;6.430;2022-08-19T03:22:37;14.30;99.90
55436;DHT22;41307;53.142;6.430;2022-08-19T03:25:03;14.40;99.90
55436;DHT22;41307;53.142;6.430;2022-08-19T03:27:29;14.30;99.90
55436;DHT22;41307;53.142;6.430;2022-08-19T03:29:55;14.30;99.90
55436;DHT22;41307;53.142;6.430;2022-08-19T03:32:21;14.30;99.90
55436;DHT22;41307;53.142;6.430;2022-08-19T03:34:47;14.30;99.90
55436;DHT22;41307;53.142;6.430;2022-08-19T03:37:13;14.30;99.90
55436;DHT22;41307;53.142;6.430;2022-08-19T03:39:40;14.30;99.90
55436;DHT22;41307;53.142;6.430;2022-08-19T03:42:06;14.30;99.90
55436;DHT22;41307;53.142;6.430;2022-08-19T03:44:32;14.30;99.90
55436;DHT22;41307;53.142;6.430;2022-08-19T03:46:59;14.30;99.90
55436;DHT22;41307;53.142;6.430;2022-08-19T03:49:27;14.30;99.90
55436;DHT22;41307;53.142;6.430;2022-08-19T03:51:54;14.20;99.90
55436;DHT22;41307;53.142;6.430;2022-08-19T03:54:22;14.20;99.90
55436;DHT22;41307;53.142;6.430;2022-08-19T03:56:53;14.20;99.90
55436;DHT22;41307;53.142;6.430;2022-08-19T03:59:23;14.20;99.90
55436;DHT22;41307;53.142;6.430;2022-08-19T04:01:51;14.20;99.90
55436;DHT22;41307;53.142;6.430;2022-08-19T04:04:17;14.20;99.90
55436;DHT22;41307;53.142;6.430;2022-08-19T04:06:43;14.20;99.90
55436;DHT22;41307;53.142;6.430;2022-08-19T04:09:11;14.20;99.90
55436;DHT22;41307;53.142;6.430;2022-08-19T04:11:41;14.10;99.90
55436;DHT22;41307;53.142;6.430;2022-08-19T04:14:10;14.10;99.90
55436;DHT22;41307;53.142;6.430;2022-08-19T04:16:36;14.10;99.90
55436;DHT22;41307;53.142;6.430;2022-08-19T04:19:03;14.30;99.90
55436;DHT22;41307;53.142;6.430;2022-08-19T04:21:29;14.10;99.90
55436;DHT22;41307;53.142;6.430;2022-08-19T04:23:56;14.10;99.90
55436;DHT22;41307;53.142;6.430;2022-08-19T04:26:28;14.20;99.90
55436;DHT22;41307;53.142;6.430;2022-08-19T04:28:58;14.20;99.90
55436;DHT22;41307;53.142;6.430;2022-08-19T04:31:27;14.10;99.90
55436;DHT22;41307;53.142;6.430;2022-08-19T04:33:55;14.10;99.90
55436;DHT22;41307;53.142;6.430;2022-08-19T04:36:24;14.10;99.90
55436;DHT22;41307;53.142;6.430;2022-08-19T04:38:54;14.20;99.90
55436;DHT22;41307;53.142;6.430;2022-08-19T04:41:20;14.20;99.90
55436;DHT22;41307;53.142;6.430;2022-08-19T04:44:05;14.20;99.90
55436;DHT22;41307;53.142;6.430;2022-08-19T04:46:31;14.10;99.90
55436;DHT22;41307;53.142;6.430;2022-08-19T04:49:02;14.10;99.90
55436;DHT22;41307;53.142;6.430;2022-08-19T04:51:28;14.10;99.90
55436;DHT22;41307;53.142;6.430;2022-08-19T04:53:56;14.10;99.90
55436;DHT22;41307;53.142;6.430;2022-08-19T04:56:22;14.10;99.90
55436;DHT22;41307;53.142;6.430;2022-08-19T04:58:52;14.10;99.90
55436;DHT22;41307;53.142;6.430;2022-08-19T05:01:23;14.10;99.90
55436;DHT22;41307;53.142;6.430;2022-08-19T05:03:49;14.10;99.90
55436;DHT22;41307;53.142;6.430;2022-08-19T05:06:17;14.10;99.90
55436;DHT22;41307;53.142;6.430;2022-08-19T05:08:44;14.10;99.90
55436;DHT22;41307;53.142;6.430;2022-08-19T05:11:15;14.10;99.90
55436;DHT22;41307;53.142;6.430;2022-08-19T05:13:42;14.20;99.90
55436;DHT22;41307;53.142;6.430;2022-08-19T05:16:09;14.20;99.90
55436;DHT22;41307;53.142;6.430;2022-08-19T05:18:35;14.30;99.90
55436;DHT22;41307;53.142;6.430;2022-08-19T05:21:21;14.30;99.90
55436;DHT22;41307;53.142;6.430;2022-08-19T05:24:06;14.40;99.90
55436;DHT22;41307;53.142;6.430;2022-08-19T05:26:37;14.50;99.90
55436;DHT22;41307;53.142;6.430;2022-08-19T05:29:04;14.50;99.90
55436;DHT22;41307;53.142;6.430;2022-08-19T05:31:31;15.00;99.90
55436;DHT22;41307;53.142;6.430;2022-08-19T05:33:57;14.80;99.90
55436;DHT22;41307;53.142;6.430;2022-08-19T05:36:28;14.80;99.90
55436;DHT22;41307;53.142;6.430;2022-08-19T05:38:54;14.90;99.90
55436;DHT22;41307;53.142;6.430;2022-08-19T05:41:21;15.40;99.90
55436;DHT22;41307;53.142;6.430;2022-08-19T05:43:48;16.40;99.90
55436;DHT22;41307;53.142;6.430;2022-08-19T05:46:18;17.60;99.90
55436;DHT22;41307;53.142;6.430;2022-08-19T05:48:44;18.90;99.90
55436;DHT22;41307;53.142;6.430;2022-08-19T05:51:09;19.80;99.90
55436;DHT22;41307;53.142;6.430;2022-08-19T05:53:36;20.80;99.90
55436;DHT22;41307;53.142;6.430;2022-08-19T05:56:11;21.50;99.90
55436;DHT22;41307;53.142;6.430;2022-08-19T05:58:37;22.20;99.90
55436;DHT22;41307;53.142;6.430;2022-08-19T06:01:26;22.70;99.90
55436;DHT22;41307;53.142;6.430;2022-08-19T06:03:52;23.10;99.90
55436;DHT22;41307;53.142;6.430;2022-08-19T06:06:18;23.30;99.90
55436;DHT22;41307;53.142;6.430;2022-08-19T06:08:44;23.60;99.90
55436;DHT22;41307;53.142;6.430;2022-08-19T06:11:32;23.70;99.90
55436;DHT22;41307;53.142;6.430;2022-08-19T06:14:01;24.00;99.90
55436;DHT22;41307;53.142;6.430;2022-08-19T06:16:28;24.40;99.90
55436;DHT22;41307;53.142;6.430;2022-08-19T06:18:59;24.80;99.90
55436;DHT22;41307;53.142;6.430;2022-08-19T06:21:27;24.90;99.90
55436;DHT22;41307;53.142;6.430;2022-08-19T06:23:54;25.10;99.90
55436;DHT22;41307;53.142;6.430;2022-08-19T06:26:21;25.40;99.90
55436;DHT22;41307;53.142;6.430;2022-08-19T06:28:48;25.50;99.90
55436;DHT22;41307;53.142;6.430;2022-08-19T06:31:15;25.10;99.90
55436;DHT22;41307;53.142;6.430;2022-08-19T06:33:43;24.20;99.90
55436;DHT22;41307;53.142;6.430;2022-08-19T06:36:27;23.30;99.90
55436;DHT22;41307;53.142;6.430;2022-08-19T06:38:57;22.80;99.90
55436;DHT22;41307;53.142;6.430;2022-08-19T06:41:24;22.10;99.90
55436;DHT22;41307;53.142;6.430;2022-08-19T06:43:51;21.60;99.90
55436;DHT22;41307;53.142;6.430;2022-08-19T06:46:17;21.00;99.90
55436;DHT22;41307;53.142;6.430;2022-08-19T06:48:46;20.80;99.90
55436;DHT22;41307;53.142;6.430;2022-08-19T06:51:13;20.60;99.90
55436;DHT22;41307;53.142;6.430;2022-08-19T06:53:41;20.40;99.90
55436;DHT22;41307;53.142;6.430;2022-08-19T06:56:11;20.00;99.90
55436;DHT22;41307;53.142;6.430;2022-08-19T06:58:38;19.90;99.90
55436;DHT22;41307;53.142;6.430;2022-08-19T07:01:04;19.80;99.90
55436;DHT22;41307;53.142;6.430;2022-08-19T07:03:34;19.80;99.90
55436;DHT22;41307;53.142;6.430;2022-08-19T07:06:09;19.80;99.90
55436;DHT22;41307;53.142;6.430;2022-08-19T07:08:36;19.80;99.90
55436;DHT22;41307;53.142;6.430;2022-08-19T07:11:06;19.90;99.90
55436;DHT22;41307;53.142;6.430;2022-08-19T07:13:33;19.90;99.90
55436;DHT22;41307;53.142;6.430;2022-08-19T07:16:06;19.90;99.90
55436;DHT22;41307;53.142;6.430;2022-08-19T07:18:32;19.90;99.90
55436;DHT22;41307;53.142;6.430;2022-08-19T07:21:25;20.00;99.90
55436;DHT22;41307;53.142;6.430;2022-08-19T07:23:56;19.90;99.90
55436;DHT22;41307;53.142;6.430;2022-08-19T07:26:31;19.90;99.90
55436;DHT22;41307;53.142;6.430;2022-08-19T07:28:57;19.90;99.90
55436;DHT22;41307;53.142;6.430;2022-08-19T07:31:26;20.00;99.90
55436;DHT22;41307;53.142;6.430;2022-08-19T07:33:54;20.10;99.90
55436;DHT22;41307;53.142;6.430;2022-08-19T07:36:24;20.20;99.90
55436;DHT22;41307;53.142;6.430;2022-08-19T07:38:51;20.30;99.90
55436;DHT22;41307;53.142;6.430;2022-08-19T07:41:20;20.50;99.90
55436;DHT22;41307;53.142;6.430;2022-08-19T07:43:48;20.80;99.90
55436;DHT22;41307;53.142;6.430;2022-08-19T07:46:15;21.60;99.90
55436;DHT22;41307;53.142;6.430;2022-08-19T07:48:43;22.70;99.90
55436;DHT22;41307;53.142;6.430;2022-08-19T07:51:11;23.90;99.90
55436;DHT22;41307;53.142;6.430;2022-08-19T07:53:38;24.70;99.90
55436;DHT22;41307;53.142;6.430;2022-08-19T07:56:05;25.70;99.90
55436;DHT22;41307;53.142;6.430;2022-08-19T07:58:33;26.20;99.90
55436;DHT22;41307;53.142;6.430;2022-08-19T08:01:00;26.50;99.90
55436;DHT22;41307;53.142;6.430;2022-08-19T08:03:27;27.10;99.90
55436;DHT22;41307;53.142;6.430;2022-08-19T08:06:13;27.40;99.90
55436;DHT22;41307;53.142;6.430;2022-08-19T08:08:58;28.00;99.90
55436;DHT22;41307;53.142;6.430;2022-08-19T08:11:46;28.10;99.90
55436;DHT22;41307;53.142;6.430;2022-08-19T08:14:20;28.20;99.90
55436;DHT22;41307;53.142;6.430;2022-08-19T08:16:48;28.30;99.90
55436;DHT22;41307;53.142;6.430;2022-08-19T08:19:18;28.80;99.90
55436;DHT22;41307;53.142;6.430;2022-08-19T08:21:44;29.10;99.90
55436;DHT22;41307;53.142;6.430;2022-08-19T08:24:10;29.50;99.90
55436;DHT22;41307;53.142;6.430;2022-08-19T08:26:36;29.40;99.90
55436;DHT22;41307;53.142;6.430;2022-08-19T08:29:02;29.80;99.90
55436;DHT22;41307;53.142;6.430;2022-08-19T08:31:28;29.70;99.90
55436;DHT22;41307;53.142;6.430;2022-08-19T08:33:54;29.80;98.80
55436;DHT22;41307;53.142;6.430;2022-08-19T08:36:20;30.10;97.80
55436;DHT22;41307;53.142;6.430;2022-08-19T08:38:46;29.90;97.30
55436;DHT22;41307;53.142;6.430;2022-08-19T08:41:22;30.20;97.30
55436;DHT22;41307;53.142;6.430;2022-08-19T08:43:50;30.40;96.50
55436;DHT22;41307;53.142;6.430;2022-08-19T08:46:39;30.70;95.40
55436;DHT22;41307;53.142;6.430;2022-08-19T08:51:52;31.20;92.70
55436;DHT22;41307;53.142;6.430;2022-08-19T08:54:24;31.40;91.90
55436;DHT22;41307;53.142;6.430;2022-08-19T08:56:51;31.40;90.20
55436;DHT22;41307;53.142;6.430;2022-08-19T08:59:26;31.40;90.50
55436;DHT22;41307;53.142;6.430;2022-08-19T09:01:53;31.60;89.70
55436;DHT22;41307;53.142;6.430;2022-08-19T09:04:19;31.60;89.30
55436;DHT22;41307;53.142;6.430;2022-08-19T09:06:58;31.80;89.00
55436;DHT22;41307;53.142;6.430;2022-08-19T09:09:34;31.80;85.20
55436;DHT22;41307;53.142;6.430;2022-08-19T09:12:19;31.70;86.60
55436;DHT22;41307;53.142;6.430;2022-08-19T09:15:03;31.70;86.50
55436;DHT22;41307;53.142;6.430;2022-08-19T09:17:31;31.80;85.60
55436;DHT22;41307;53.142;6.430;2022-08-19T09:22:30;31.80;84.00
55436;DHT22;41307;53.142;6.430;2022-08-19T09:24:56;31.90;83.50
55436;DHT22;41307;53.142;6.430;2022-08-19T09:27:23;31.80;83.50
55436;DHT22;41307;53.142;6.430;2022-08-19T09:29:50;31.80;83.70
55436;DHT22;41307;53.142;6.430;2022-08-19T09:32:16;31.40;83.50
55436;DHT22;41307;53.142;6.430;2022-08-19T09:34:44;31.60;83.70
55436;DHT22;41307;53.142;6.430;2022-08-19T09:37:12;31.70;83.10
55436;DHT22;41307;53.142;6.430;2022-08-19T09:39:39;31.60;83.90
55436;DHT22;41307;53.142;6.430;2022-08-19T09:42:07;31.60;84.40
55436;DHT22;41307;53.142;6.430;2022-08-19T09:44:38;31.60;83.40
55436;DHT22;41307;53.142;6.430;2022-08-19T09:47:04;31.70;81.80
55436;DHT22;41307;53.142;6.430;2022-08-19T09:49:30;31.60;81.40
55436;DHT22;41307;53.142;6.430;2022-08-19T09:51:57;31.40;81.40
55436;DHT22;41307;53.142;6.430;2022-08-19T09:54:23;31.40;82.50
55436;DHT22;41307;53.142;6.430;2022-08-19T09:56:50;31.50;82.50
55436;DHT22;41307;53.142;6.430;2022-08-19T09:59:15;31.60;83.80
55436;DHT22;41307;53.142;6.430;2022-08-19T10:01:41;31.70;82.00
55436;DHT22;41307;53.142;6.430;2022-08-19T10:04:07;31.70;79.90
55436;DHT22;41307;53.142;6.430;2022-08-19T10:06:38;31.60;78.70
55436;DHT22;41307;53.142;6.430;2022-08-19T10:09:06;31.50;78.60
55436;DHT22;41307;53.142;6.430;2022-08-19T10:11:34;31.30;78.30
55436;DHT22;41307;53.142;6.430;2022-08-19T10:14:01;31.30;80.60
55436;DHT22;41307;53.142;6.430;2022-08-19T10:16:27;31.40;79.80
55436;DHT22;41307;53.142;6.430;2022-08-19T10:18:53;31.40;80.10
55436;DHT22;41307;53.142;6.430;2022-08-19T10:21:26;31.30;79.50
55436;DHT22;41307;53.142;6.430;2022-08-19T10:23:55;31.30;79.40
55436;DHT22;41307;53.142;6.430;2022-08-19T10:26:25;31.60;80.60
55436;DHT22;41307;53.142;6.430;2022-08-19T10:28:52;31.80;79.90
55436;DHT22;41307;53.142;6.430;2022-08-19T10:31:24;31.90;79.90
55436;DHT22;41307;53.142;6.430;2022-08-19T10:33:51;32.30;79.60
55436;DHT22;41307;53.142;6.430;2022-08-19T10:36:27;32.30;79.40
55436;DHT22;41307;53.142;6.430;2022-08-19T10:38:55;32.20;78.00
55436;DHT22;41307;53.142;6.430;2022-08-19T10:41:27;32.00;77.80
55436;DHT22;41307;53.142;6.430;2022-08-19T10:43:55;32.10;76.80
55436;DHT22;41307;53.142;6.430;2022-08-19T10:46:23;32.00;75.60
55436;DHT22;41307;53.142;6.430;2022-08-19T10:48:51;31.70;75.10
55436;DHT22;41307;53.142;6.430;2022-08-19T10:51:17;31.80;75.60
55436;DHT22;41307;53.142;6.430;2022-08-19T10:54:02;31.80;77.20
55436;DHT22;41307;53.142;6.430;2022-08-19T10:56:29;31.90;77.80
55436;DHT22;41307;53.142;6.430;2022-08-19T10:59:14;32.00;78.20
55436;DHT22;41307;53.142;6.430;2022-08-19T11:01:42;31.60;79.00
55436;DHT22;41307;53.142;6.430;2022-08-19T11:04:08;31.20;78.20
55436;DHT22;41307;53.142;6.430;2022-08-19T11:06:42;31.30;78.80
55436;DHT22;41307;53.142;6.430;2022-08-19T11:09:09;31.20;77.90
55436;DHT22;41307;53.142;6.430;2022-08-19T11:11:37;31.60;79.50
55436;DHT22;41307;53.142;6.430;2022-08-19T11:14:10;31.80;78.80
55436;DHT22;41307;53.142;6.430;2022-08-19T11:16:37;31.90;79.50
55436;DHT22;41307;53.142;6.430;2022-08-19T11:19:06;31.70;79.20
55436;DHT22;41307;53.142;6.430;2022-08-19T11:21:36;31.60;79.10
55436;DHT22;41307;53.142;6.430;2022-08-19T11:24:05;31.30;78.80
55436;DHT22;41307;53.142;6.430;2022-08-19T11:26:32;30.90;78.70
55436;DHT22;41307;53.142;6.430;2022-08-19T11:28:59;30.60;79.20
55436;DHT22;41307;53.142;6.430;2022-08-19T11:31:34;30.50;79.70
55436;DHT22;41307;53.142;6.430;2022-08-19T11:34:05;30.30;78.50
55436;DHT22;41307;53.142;6.430;2022-08-19T11:36:36;30.20;79.50
55436;DHT22;41307;53.142;6.430;2022-08-19T11:39:07;30.10;79.40
55436;DHT22;41307;53.142;6.430;2022-08-19T11:41:33;30.10;78.80
55436;DHT22;41307;53.142;6.430;2022-08-19T11:43:59;30.00;78.10
55436;DHT22;41307;53.142;6.430;2022-08-19T11:46:26;29.70;78.10
55436;DHT22;41307;53.142;6.430;2022-08-19T11:48:55;29.20;77.30
55436;DHT22;41307;53.142;6.430;2022-08-19T11:51:23;29.00;78.00
55436;DHT22;41307;53.142;6.430;2022-08-19T11:53:52;29.00;79.70
55436;DHT22;41307;53.142;6.430;2022-08-19T11:56:18;28.70;81.00
55436;DHT22;41307;53.142;6.430;2022-08-19T11:58:46;28.50;81.30
55436;DHT22;41307;53.142;6.430;2022-08-19T12:01:14;28.40;82.60
55436;DHT22;41307;53.142;6.430;2022-08-19T12:03:41;28.30;83.70
55436;DHT22;41307;53.142;6.430;2022-08-19T12:06:11;28.20;84.60
55436;DHT22;41307;53.142;6.430;2022-08-19T12:08:41;28.10;85.50
55436;DHT22;41307;53.142;6.430;2022-08-19T12:11:09;28.20;85.50
55436;DHT22;41307;53.142;6.430;2022-08-19T12:13:36;28.20;85.10
55436;DHT22;41307;53.142;6.430;2022-08-19T12:16:10;28.60;86.00
55436;DHT22;41307;53.142;6.430;2022-08-19T12:18:41;28.90;84.60
55436;DHT22;41307;53.142;6.430;2022-08-19T12:21:10;28.90;83.50
55436;DHT22;41307;53.142;6.430;2022-08-19T12:23:39;29.30;84.60
55436;DHT22;41307;53.142;6.430;2022-08-19T12:26:05;29.50;83.70
55436;DHT22;41307;53.142;6.430;2022-08-19T12:28:31;29.40;83.50
55436;DHT22;41307;53.142;6.430;2022-08-19T12:30:57;29.30;83.30
55436;DHT22;41307;53.142;6.430;2022-08-19T12:33:23;29.30;83.60
55436;DHT22;41307;53.142;6.430;2022-08-19T12:35:54;29.20;83.70
55436;DHT22;41307;53.142;6.430;2022-08-19T12:38:20;29.10;85.40
55436;DHT22;41307;53.142;6.430;2022-08-19T12:40:50;29.00;86.00
55436;DHT22;41307;53.142;6.430;2022-08-19T12:43:17;29.00;86.30
55436;DHT22;41307;53.142;6.430;2022-08-19T12:45:45;29.00;86.50
55436;DHT22;41307;53.142;6.430;2022-08-19T12:48:11;28.90;86.50
55436;DHT22;41307;53.142;6.430;2022-08-19T12:50:42;28.80;85.90
55436;DHT22;41307;53.142;6.430;2022-08-19T12:53:08;28.70;86.10
55436;DHT22;41307;53.142;6.430;2022-08-19T12:55:34;28.60;87.00
55436;DHT22;41307;53.142;6.430;2022-08-19T12:58:00;28.60;87.70
55436;DHT22;41307;53.142;6.430;2022-08-19T13:00:27;28.60;87.90
55436;DHT22;41307;53.142;6.430;2022-08-19T13:02:53;28.40;88.90
55436;DHT22;41307;53.142;6.430;2022-08-19T13:05:23;28.30;91.10
55436;DHT22;41307;53.142;6.430;2022-08-19T13:07:50;28.30;91.90
55436;DHT22;41307;53.142;6.430;2022-08-19T13:10:19;28.20;93.00
55436;DHT22;41307;53.142;6.430;2022-08-19T13:12:48;28.10;94.10
55436;DHT22;41307;53.142;6.430;2022-08-19T13:15:15;27.90;95.40
55436;DHT22;41307;53.142;6.430;2022-08-19T13:17:45;28.00;95.60
55436;DHT22;41307;53.142;6.430;2022-08-19T13:20:13;28.00;95.90
55436;DHT22;41307;53.142;6.430;2022-08-19T13:22:39;28.10;96.00
55436;DHT22;41307;53.142;6.430;2022-08-19T13:25:06;28.00;96.30
55436;DHT22;41307;53.142;6.430;2022-08-19T13:27:32;28.00;96.50
55436;DHT22;41307;53.142;6.430;2022-08-19T13:29:59;27.80;96.90
55436;DHT22;41307;53.142;6.430;2022-08-19T13:32:44;27.70;96.80
55436;DHT22;41307;53.142;6.430;2022-08-19T13:35:28;27.40;97.10
55436;DHT22;41307;53.142;6.430;2022-08-19T13:37:54;27.20;98.10
55436;DHT22;41307;53.142;6.430;2022-08-19T13:40:23;27.00;98.60
55436;DHT22;41307;53.142;6.430;2022-08-19T13:42:52;26.80;99.30
55436;DHT22;41307;53.142;6.430;2022-08-19T13:45:20;26.60;99.90
55436;DHT22;41307;53.142;6.430;2022-08-19T13:47:47;26.50;99.90
55436;DHT22;41307;53.142;6.430;2022-08-19T13:50:16;26.30;99.90
55436;DHT22;41307;53.142;6.430;2022-08-19T13:52:43;26.20;99.90
55436;DHT22;41307;53.142;6.430;2022-08-19T13:55:10;26.10;99.90
55436;DHT22;41307;53.142;6.430;2022-08-19T13:57:37;26.00;99.90
55436;DHT22;41307;53.142;6.430;2022-08-19T14:00:15;25.90;99.90
55436;DHT22;41307;53.142;6.430;2022-08-19T14:02:44;25.70;99.90
55436;DHT22;41307;53.142;6.430;2022-08-19T14:05:12;25.60;99.90
55436;DHT22;41307;53.142;6.430;2022-08-19T14:07:38;25.60;99.90
55436;DHT22;41307;53.142;6.430;2022-08-19T14:10:05;25.60;99.90
55436;DHT22;41307;53.142;6.430;2022-08-19T14:12:32;25.60;99.90
55436;DHT22;41307;53.142;6.430;2022-08-19T14:14:59;25.60;99.90
55436;DHT22;41307;53.142;6.430;2022-08-19T14:17:25;25.70;99.90
55436;DHT22;41307;53.142;6.430;2022-08-19T14:19:57;25.70;99.90
55436;DHT22;41307;53.142;6.430;2022-08-19T14:22:22;25.80;99.90
55436;DHT22;41307;53.142;6.430;2022-08-19T14:24:48;25.90;99.90
55436;DHT22;41307;53.142;6.430;2022-08-19T14:27:15;26.00;99.90
55436;DHT22;41307;53.142;6.430;2022-08-19T14:29:41;26.10;99.90
55436;DHT22;41307;53.142;6.430;2022-08-19T14:32:07;26.10;99.90
55436;DHT22;41307;53.142;6.430;2022-08-19T14:34:33;26.10;99.90
55436;DHT22;41307;53.142;6.430;2022-08-19T14:37:02;26.10;99.90
55436;DHT22;41307;53.142;6.430;2022-08-19T14:39:28;26.10;99.90
55436;DHT22;41307;53.142;6.430;2022-08-19T14:41:54;26.30;99.90
55436;DHT22;41307;53.142;6.430;2022-08-19T14:44:19;26.30;99.90
55436;DHT22;41307;53.142;6.430;2022-08-19T14:46:45;26.40;99.90
55436;DHT22;41307;53.142;6.430;2022-08-19T14:49:11;26.50;99.90
55436;DHT22;41307;53.142;6.430;2022-08-19T14:51:37;26.60;99.90
55436;DHT22;41307;53.142;6.430;2022-08-19T14:54:03;26.60;99.90
55436;DHT22;41307;53.142;6.430;2022-08-19T14:56:29;26.70;99.90
55436;DHT22;41307;53.142;6.430;2022-08-19T14:58:56;26.70;99.90
55436;DHT22;41307;53.142;6.430;2022-08-19T15:01:25;26.60;99.90
55436;DHT22;41307;53.142;6.430;2022-08-19T15:03:51;26.60;99.90
55436;DHT22;41307;53.142;6.430;2022-08-19T15:06:22;26.60;99.90
55436;DHT22;41307;53.142;6.430;2022-08-19T15:08:48;26.70;99.90
55436;DHT22;41307;53.142;6.430;2022-08-19T15:11:17;26.80;99.90
55436;DHT22;41307;53.142;6.430;2022-08-19T15:13:45;26.90;99.90
55436;DHT22;41307;53.142;6.430;2022-08-19T15:16:12;26.90;99.90
55436;DHT22;41307;53.142;6.430;2022-08-19T15:18:40;26.90;99.90
55436;DHT22;41307;53.142;6.430;2022-08-19T15:21:10;26.90;99.90
55436;DHT22;41307;53.142;6.430;2022-08-19T15:23:38;26.80;99.90
55436;DHT22;41307;53.142;6.430;2022-08-19T15:26:04;26.90;99.90
55436;DHT22;41307;53.142;6.430;2022-08-19T15:28:31;26.80;99.90
55436;DHT22;41307;53.142;6.430;2022-08-19T15:30:58;26.80;99.90
55436;DHT22;41307;53.142;6.430;2022-08-19T15:33:24;26.80;99.90
55436;DHT22;41307;53.142;6.430;2022-08-19T15:35:51;26.70;99.90
55436;DHT22;41307;53.142;6.430;2022-08-19T15:38:18;26.60;99.90
55436;DHT22;41307;53.142;6.430;2022-08-19T15:40:49;26.60;99.90
55436;DHT22;41307;53.142;6.430;2022-08-19T15:43:16;26.60;99.90